createdAt,value
2023-04-21T00:01:09.024Z,2.65
2023-04-21T00:03:39.718Z,2.65
2023-04-21T00:06:12.847Z,2.70
2023-04-21T00:08:44.550Z,2.90
2023-04-21T00:11:17.086Z,2.72
2023-04-21T00:13:49.219Z,2.60
2023-04-21T00:16:22.021Z,2.45
2023-04-21T00:18:52.851Z,2.70
2023-04-21T00:21:24.217Z,2.88
2023-04-21T00:23:56.592Z,2.58
2023-04-21T00:26:27.191Z,2.60
2023-04-21T00:28:57.732Z,2.97
2023-04-21T00:31:33.213Z,2.63
2023-04-21T00:34:04.022Z,2.90
2023-04-21T00:36:34.972Z,2.67
2023-04-21T00:39:04.532Z,2.97
2023-04-21T00:41:36.271Z,2.55
2023-04-21T00:44:09.005Z,2.97
2023-04-21T00:46:41.259Z,2.75
2023-04-21T00:49:11.423Z,2.95
2023-04-21T00:51:41.678Z,2.70
2023-04-21T00:54:15.601Z,2.53
2023-04-21T00:56:45.397Z,2.60
2023-04-21T00:59:17.647Z,2.90
2023-04-21T01:01:51.005Z,3.00
2023-04-21T01:04:23.868Z,2.50
2023-04-21T01:07:08.393Z,2.80
2023-04-21T01:09:37.240Z,2.75
2023-04-21T01:12:15.240Z,2.58
2023-04-21T01:14:45.108Z,2.50
2023-04-21T01:17:20.908Z,2.75
2023-04-21T01:20:03.380Z,2.72
2023-04-21T01:22:33.390Z,2.90
2023-04-21T01:25:04.679Z,2.83
2023-04-21T01:27:37.127Z,2.90
2023-04-21T01:30:11.331Z,2.97
2023-04-21T01:32:41.826Z,2.88
2023-04-21T01:35:12.497Z,2.80
2023-04-21T01:37:44.811Z,2.85
2023-04-21T01:40:16.813Z,2.83
2023-04-21T01:42:45.510Z,2.90
2023-04-21T01:45:16.077Z,2.80
2023-04-21T01:47:45.898Z,2.90
2023-04-21T01:50:17.517Z,2.72
2023-04-21T01:52:48.927Z,3.10
2023-04-21T01:55:18.248Z,2.80
2023-04-21T01:57:49.281Z,3.00
2023-04-21T02:00:20.007Z,2.80
2023-04-21T02:02:49.763Z,2.83
2023-04-21T02:05:20.876Z,2.80
2023-04-21T02:07:51.292Z,2.88
2023-04-21T02:10:22.741Z,3.08
2023-04-21T02:12:52.308Z,2.78
2023-04-21T02:15:23.295Z,3.00
2023-04-21T02:17:53.638Z,3.05
2023-04-21T02:20:33.458Z,2.90
2023-04-21T02:23:05.480Z,2.90
2023-04-21T02:25:39.625Z,3.13
2023-04-21T02:28:09.296Z,2.85
2023-04-21T02:30:41.448Z,3.00
2023-04-21T02:33:11.973Z,2.97
2023-04-21T02:35:43.133Z,3.22
2023-04-21T02:38:13.914Z,3.05
2023-04-21T02:40:45.395Z,2.97
2023-04-21T02:43:16.467Z,2.90
2023-04-21T02:45:47.603Z,2.88
2023-04-21T02:48:21.528Z,3.05
2023-04-21T02:50:53.942Z,2.90
2023-04-21T02:53:24.811Z,2.95
2023-04-21T02:55:56.434Z,3.03
2023-04-21T02:58:25.377Z,2.83
2023-04-21T03:00:55.392Z,3.08
2023-04-21T03:03:25.624Z,2.95
2023-04-21T03:06:05.062Z,3.10
2023-04-21T03:08:37.621Z,2.70
2023-04-21T03:11:08.945Z,3.00
2023-04-21T03:13:40.471Z,3.00
2023-04-21T03:16:10.637Z,2.85
2023-04-21T03:18:42.143Z,3.10
2023-04-21T03:21:13.801Z,2.80
2023-04-21T03:23:44.308Z,2.63
2023-04-21T03:26:13.655Z,2.90
2023-04-21T03:28:43.087Z,2.88
2023-04-21T03:31:12.407Z,3.30
2023-04-21T03:33:44.630Z,2.90
2023-04-21T03:36:13.428Z,3.47
2023-04-21T03:38:43.325Z,2.95
2023-04-21T03:41:12.755Z,3.20
2023-04-21T03:43:42.662Z,2.80
2023-04-21T03:46:23.234Z,3.10
2023-04-21T03:48:53.207Z,3.00
2023-04-21T03:51:23.286Z,2.88
2023-04-21T03:53:53.005Z,3.30
2023-04-21T03:56:23.727Z,3.10
2023-04-21T03:58:57.983Z,3.00
2023-04-21T04:01:35.250Z,3.13
2023-04-21T04:04:04.913Z,3.03
2023-04-21T04:06:37.276Z,2.65
2023-04-21T04:09:09.613Z,2.95
2023-04-21T04:11:39.300Z,3.40
2023-04-21T04:14:09.587Z,3.35
2023-04-21T04:16:43.186Z,3.25
2023-04-21T04:19:12.973Z,3.13
2023-04-21T04:21:43.180Z,3.22
2023-04-21T04:24:15.254Z,3.08
2023-04-21T04:26:45.369Z,2.90
2023-04-21T04:29:17.190Z,3.00
2023-04-21T04:31:48.259Z,2.80
2023-04-21T04:34:20.962Z,3.33
2023-04-21T04:36:54.965Z,3.17
2023-04-21T04:39:27.424Z,2.72
2023-04-21T04:41:57.627Z,2.85
2023-04-21T04:44:31.013Z,3.15
2023-04-21T04:47:03.300Z,2.95
2023-04-21T04:49:34.522Z,2.95
2023-04-21T04:52:04.793Z,3.08
2023-04-21T04:54:36.091Z,3.05
2023-04-21T04:57:06.946Z,3.22
2023-04-21T04:59:36.363Z,2.70
2023-04-21T05:02:05.456Z,3.10
2023-04-21T05:04:36.525Z,3.08
2023-04-21T05:07:08.517Z,2.88
2023-04-21T05:09:37.237Z,3.25
2023-04-21T05:12:08.702Z,3.00
2023-04-21T05:14:37.122Z,3.28
2023-04-21T05:17:09.556Z,3.05
2023-04-21T05:19:40.748Z,3.30
2023-04-21T05:22:10.568Z,3.15
2023-04-21T05:24:41.911Z,2.90
2023-04-21T05:27:12.047Z,3.20
2023-04-21T05:29:41.794Z,3.33
2023-04-21T05:32:12.787Z,3.25
2023-04-21T05:34:42.782Z,3.25
2023-04-21T05:37:12.999Z,3.20
2023-04-21T05:39:43.172Z,3.30
2023-04-21T05:42:12.994Z,3.50
2023-04-21T05:44:43.218Z,3.05
2023-04-21T05:47:12.932Z,2.83
2023-04-21T05:49:43.067Z,3.10
2023-04-21T05:52:12.495Z,3.20
2023-04-21T05:54:41.662Z,3.25
2023-04-21T05:57:12.383Z,2.92
2023-04-21T05:59:42.787Z,3.00
2023-04-21T06:02:13.162Z,3.42
2023-04-21T06:04:43.441Z,3.05
2023-04-21T06:07:15.966Z,3.30
2023-04-21T06:09:53.031Z,3.42
2023-04-21T06:12:27.422Z,3.25
2023-04-21T06:15:02.559Z,3.38
2023-04-21T06:17:32.683Z,3.33
2023-04-21T06:20:03.058Z,3.13
2023-04-21T06:22:33.642Z,3.20
2023-04-21T06:25:03.675Z,3.30
2023-04-21T06:27:34.577Z,3.50
2023-04-21T06:30:04.073Z,3.42
2023-04-21T06:32:33.892Z,3.20
2023-04-21T06:35:04.449Z,3.25
2023-04-21T06:37:32.969Z,3.28
2023-04-21T06:40:03.734Z,3.28
2023-04-21T06:42:32.987Z,3.50
2023-04-21T06:45:04.904Z,3.30
2023-04-21T06:47:35.253Z,3.42
2023-04-21T06:50:07.220Z,3.38
2023-04-21T06:52:36.914Z,3.47
2023-04-21T06:55:08.175Z,3.58
2023-04-21T06:57:37.681Z,4.25
2023-04-21T07:00:08.877Z,3.72
2023-04-21T07:02:38.936Z,3.92
2023-04-21T07:05:09.337Z,3.45
2023-04-21T07:07:39.756Z,3.30
2023-04-21T07:10:10.160Z,3.50
2023-04-21T07:12:39.250Z,3.53
2023-04-21T07:15:10.872Z,3.72
2023-04-21T07:17:40.944Z,3.72
2023-04-21T07:20:11.624Z,3.45
2023-04-21T07:22:41.272Z,3.65
2023-04-21T07:25:12.686Z,3.40
2023-04-21T07:27:44.505Z,3.63
2023-04-21T07:30:13.745Z,4.82
2023-04-21T07:32:44.015Z,4.15
2023-04-21T07:35:13.207Z,4.03
2023-04-21T07:37:43.321Z,4.40
2023-04-21T07:40:12.632Z,3.80
2023-04-21T07:42:43.296Z,3.65
2023-04-21T07:45:12.906Z,4.43
2023-04-21T07:47:43.397Z,4.38
2023-04-21T07:50:13.709Z,4.00
2023-04-21T07:52:44.573Z,4.18
2023-04-21T07:55:13.534Z,5.10
2023-04-21T07:57:45.694Z,5.00
2023-04-21T08:00:21.693Z,4.80
2023-04-21T08:02:52.906Z,4.60
2023-04-21T08:05:24.317Z,4.43
2023-04-21T08:07:56.818Z,4.18
2023-04-21T08:10:25.654Z,4.05
2023-04-21T08:12:56.189Z,4.40
2023-04-21T08:15:29.833Z,4.38
2023-04-21T08:18:03.345Z,4.70
2023-04-21T08:20:39.265Z,4.32
2023-04-21T08:23:09.294Z,3.97
2023-04-21T08:25:39.606Z,4.95
2023-04-21T08:28:12.911Z,4.95
2023-04-21T08:30:43.035Z,4.47
2023-04-21T08:33:15.373Z,5.00
2023-04-21T08:35:59.188Z,5.07
2023-04-21T08:38:33.837Z,5.35
2023-04-21T08:41:07.552Z,5.55
2023-04-21T08:43:37.185Z,5.45
2023-04-21T08:46:09.098Z,5.75
2023-04-21T08:48:40.059Z,5.45
2023-04-21T08:51:11.295Z,5.35
2023-04-21T08:53:42.943Z,5.05
2023-04-21T08:56:12.426Z,4.70
2023-04-21T08:58:43.331Z,5.18
2023-04-21T09:01:13.368Z,5.22
2023-04-21T09:03:43.820Z,5.35
2023-04-21T09:06:13.896Z,5.57
2023-04-21T09:08:53.191Z,5.20
2023-04-21T09:11:25.314Z,5.85
2023-04-21T09:14:00.511Z,5.57
2023-04-21T09:16:37.089Z,5.78
2023-04-21T09:19:17.192Z,5.10
2023-04-21T09:21:48.033Z,4.93
2023-04-21T09:24:17.098Z,5.60
2023-04-21T09:26:55.333Z,5.22
2023-04-21T09:29:29.131Z,5.95
2023-04-21T09:32:03.371Z,5.40
2023-04-21T09:34:35.224Z,5.50
2023-04-21T09:37:05.926Z,5.78
2023-04-21T09:39:46.187Z,5.70
2023-04-21T09:42:32.474Z,6.40
2023-04-21T09:45:20.464Z,5.45
2023-04-21T09:48:03.054Z,5.80
2023-04-21T09:51:17.642Z,5.97
2023-04-21T09:53:32.044Z,5.45
2023-04-21T09:56:05.530Z,5.07
2023-04-21T09:58:49.308Z,6.10
2023-04-21T10:01:21.674Z,5.63
2023-04-21T10:03:54.995Z,5.88
2023-04-21T10:06:27.777Z,5.47
2023-04-21T10:09:03.488Z,5.32
2023-04-21T10:11:35.362Z,5.18
2023-04-21T10:14:11.276Z,6.15
2023-04-21T10:16:41.686Z,5.82
2023-04-21T10:19:36.454Z,5.68
2023-04-21T10:22:11.302Z,5.30
2023-04-21T10:24:47.635Z,5.63
2023-04-21T10:27:35.010Z,5.57
2023-04-21T10:30:23.974Z,5.65
2023-04-21T10:33:04.849Z,6.05
2023-04-21T10:36:03.416Z,5.32
2023-04-21T10:38:44.701Z,5.45
2023-04-21T10:41:32.390Z,6.07
2023-04-21T10:44:17.045Z,5.85
2023-04-21T10:46:55.120Z,5.75
2023-04-21T10:49:31.881Z,5.88
2023-04-21T10:52:05.042Z,5.97
2023-04-21T10:54:47.458Z,6.07
2023-04-21T10:57:21.281Z,6.35
2023-04-21T10:59:51.817Z,5.90
2023-04-21T11:02:20.985Z,5.90
2023-04-21T11:04:55.248Z,6.03
2023-04-21T11:07:29.753Z,5.65
2023-04-21T11:10:05.629Z,5.60
2023-04-21T11:12:41.207Z,6.05
2023-04-21T11:15:13.806Z,6.18
2023-04-21T11:17:48.729Z,6.10
2023-04-21T11:20:17.456Z,5.75
2023-04-21T11:22:54.591Z,6.38
2023-04-21T11:25:26.101Z,6.35
2023-04-21T11:28:01.748Z,6.53
2023-04-21T11:30:36.836Z,6.32
2023-04-21T11:33:07.130Z,6.68
2023-04-21T11:35:44.095Z,6.47
2023-04-21T11:38:17.479Z,6.18
2023-04-21T11:40:52.944Z,6.07
2023-04-21T11:43:23.186Z,5.45
2023-04-21T11:45:52.901Z,6.07
2023-04-21T11:48:21.421Z,6.07
2023-04-21T11:50:52.628Z,5.97
2023-04-21T11:53:21.533Z,6.18
2023-04-21T11:55:52.694Z,6.53
2023-04-21T11:58:23.293Z,6.00
2023-04-21T12:00:52.811Z,6.70
2023-04-21T12:03:21.698Z,6.30
2023-04-21T12:06:00.112Z,6.28
2023-04-21T12:08:33.807Z,6.45
2023-04-21T12:11:04.926Z,6.00
2023-04-21T12:13:36.684Z,5.70
2023-04-21T12:16:07.918Z,6.60
2023-04-21T12:18:37.182Z,6.18
2023-04-21T12:21:11.300Z,6.05
2023-04-21T12:23:40.621Z,5.82
2023-04-21T12:26:11.447Z,6.03
2023-04-21T12:28:56.741Z,5.78
2023-04-21T12:31:26.952Z,5.22
2023-04-21T12:34:00.213Z,5.43
2023-04-21T12:36:31.372Z,5.57
2023-04-21T12:39:04.754Z,5.43
2023-04-21T12:41:35.786Z,5.53
2023-04-21T12:44:05.207Z,5.07
2023-04-21T12:46:37.587Z,5.05
2023-04-21T12:49:13.171Z,5.05
2023-04-21T12:51:43.813Z,4.90
2023-04-21T12:55:09.151Z,5.28
2023-04-21T12:57:43.358Z,5.50
2023-04-21T13:00:13.478Z,5.25
2023-04-21T13:02:47.298Z,5.10
2023-04-21T13:05:16.774Z,5.13
2023-04-21T13:07:46.131Z,5.03
2023-04-21T13:10:16.366Z,4.68
2023-04-21T13:12:45.349Z,4.85
2023-04-21T13:15:15.301Z,4.88
2023-04-21T13:17:45.041Z,4.93
2023-04-21T13:20:15.228Z,5.20
2023-04-21T13:22:47.244Z,5.28
2023-04-21T13:25:16.572Z,4.97
2023-04-21T13:27:49.057Z,4.50
2023-04-21T13:30:19.127Z,4.90
2023-04-21T13:32:51.696Z,4.50
2023-04-21T13:35:20.650Z,4.60
2023-04-21T13:37:51.245Z,4.38
2023-04-21T13:40:20.787Z,4.72
2023-04-21T13:42:49.752Z,4.10
2023-04-21T13:45:20.448Z,4.15
2023-04-21T13:47:49.289Z,4.50
2023-04-21T13:50:20.243Z,4.70
2023-04-21T13:52:51.770Z,4.55
2023-04-21T14:00:19.001Z,4.15
2023-04-21T14:02:49.371Z,4.30
2023-04-21T14:05:19.629Z,4.15
2023-04-21T14:13:33.876Z,3.58
2023-04-21T14:16:09.286Z,4.05
2023-04-21T14:18:41.577Z,4.03
2023-04-21T14:21:11.233Z,4.07
2023-04-21T14:23:40.670Z,3.70
2023-04-21T14:26:09.638Z,3.90
2023-04-21T14:28:39.053Z,4.25
2023-04-21T14:31:08.974Z,3.90
2023-04-21T14:33:44.019Z,3.92
2023-04-21T14:36:13.184Z,3.83
2023-04-21T14:38:44.009Z,4.10
2023-04-21T14:41:13.424Z,3.80
2023-04-21T14:43:43.325Z,3.92
2023-04-21T14:46:12.805Z,4.00
2023-04-21T14:48:43.296Z,3.65
2023-04-21T14:51:14.903Z,3.65
2023-04-21T14:53:43.821Z,3.78
2023-04-21T14:56:12.986Z,3.78
2023-04-21T14:58:41.534Z,3.63
2023-04-21T15:01:11.474Z,3.65
2023-04-21T15:03:41.612Z,3.28
2023-04-21T15:06:11.574Z,3.60
2023-04-21T15:08:41.681Z,3.22
2023-04-21T15:11:11.356Z,3.42
2023-04-21T15:13:40.737Z,3.85
2023-04-21T15:16:09.668Z,3.75
2023-04-21T15:18:39.491Z,3.80
2023-04-21T15:21:08.743Z,3.72
2023-04-21T15:23:37.288Z,4.13
2023-04-21T15:26:07.104Z,3.67
2023-04-21T15:28:36.504Z,3.83
2023-04-21T15:31:06.268Z,3.80
2023-04-21T15:33:37.057Z,3.45
2023-04-21T15:36:07.323Z,3.55
2023-04-21T15:38:36.575Z,3.22
2023-04-21T15:41:06.078Z,3.45
2023-04-21T15:43:37.148Z,3.50
2023-04-21T15:46:13.568Z,3.50
2023-04-21T15:48:44.882Z,3.78
2023-04-21T15:51:13.951Z,3.40
2023-04-21T15:53:48.147Z,3.40
2023-04-21T15:56:17.725Z,3.10
2023-04-21T15:58:47.123Z,3.25
2023-04-21T16:01:16.550Z,3.25
2023-04-21T16:03:47.576Z,3.40
2023-04-21T16:06:18.041Z,3.28
2023-04-21T16:08:51.398Z,3.22
2023-04-21T16:11:20.717Z,3.22
2023-04-21T16:13:51.149Z,3.28
2023-04-21T16:16:20.160Z,3.40
2023-04-21T16:18:49.400Z,3.10
2023-04-21T16:21:18.993Z,3.20
2023-04-21T16:23:49.121Z,2.90
2023-04-21T16:26:17.557Z,3.25
2023-04-21T16:28:47.317Z,2.90
2023-04-21T16:31:16.604Z,2.88
2023-04-21T16:33:45.947Z,3.15
2023-04-21T16:36:15.865Z,3.20
2023-04-21T16:38:47.931Z,3.17
2023-04-21T16:41:20.794Z,3.28
2023-04-21T16:43:49.678Z,2.90
2023-04-21T16:46:19.636Z,3.30
2023-04-21T16:48:50.612Z,3.15
2023-04-21T16:51:20.883Z,2.92
2023-04-21T16:53:50.637Z,3.15
2023-04-21T16:56:20.884Z,2.90
2023-04-21T16:58:49.242Z,2.80
2023-04-21T17:01:21.617Z,2.97
2023-04-21T17:03:51.346Z,2.80
2023-04-21T17:06:21.701Z,2.97
2023-04-21T17:09:01.511Z,2.85
2023-04-21T17:11:32.575Z,2.85
2023-04-21T17:14:03.443Z,2.75
2023-04-21T17:16:32.759Z,2.92
2023-04-21T17:19:04.024Z,3.20
2023-04-21T17:21:33.320Z,2.80
2023-04-21T17:24:03.981Z,3.05
2023-04-21T17:26:33.143Z,2.80
2023-04-21T17:29:07.920Z,3.05
2023-04-21T17:31:37.163Z,3.10
2023-04-21T17:34:05.778Z,3.10
2023-04-21T17:36:35.309Z,3.00
2023-04-21T17:39:05.697Z,2.85
2023-04-21T17:41:35.490Z,2.97
2023-04-21T17:44:07.953Z,2.85
2023-04-21T17:46:38.489Z,3.30
2023-04-21T17:49:08.631Z,3.72
2023-04-21T17:51:37.678Z,3.58
2023-04-21T17:54:07.150Z,3.33
2023-04-21T17:56:36.166Z,3.30
2023-04-21T17:59:04.456Z,3.33
2023-04-21T18:01:35.554Z,3.80
2023-04-21T18:04:06.532Z,3.65
2023-04-21T18:06:36.843Z,3.38
2023-04-21T18:09:11.057Z,3.50
2023-04-21T18:11:40.865Z,3.63
2023-04-21T18:14:11.848Z,3.60
2023-04-21T18:16:41.578Z,3.85
2023-04-21T18:19:12.855Z,3.38
2023-04-21T18:21:41.947Z,3.65
2023-04-21T18:24:12.106Z,3.60
2023-04-21T18:26:41.222Z,3.60
2023-04-21T18:29:09.863Z,3.83
2023-04-21T18:31:41.445Z,3.50
2023-04-21T18:34:15.715Z,3.55
2023-04-21T18:36:48.054Z,3.15
2023-04-21T18:39:21.363Z,2.83
2023-04-21T18:41:52.291Z,2.88
2023-04-21T18:44:21.399Z,3.00
2023-04-21T18:46:54.077Z,3.10
2023-04-21T18:49:30.362Z,3.17
2023-04-21T18:52:03.783Z,3.20
2023-04-21T18:54:36.023Z,3.00
2023-04-21T18:57:07.316Z,2.90
2023-04-21T18:59:36.971Z,3.55
2023-04-21T19:02:08.365Z,3.28
2023-04-21T19:04:37.650Z,3.30
2023-04-21T19:07:10.925Z,3.10
2023-04-21T19:09:41.096Z,3.35
2023-04-21T19:12:12.151Z,3.20
2023-04-21T19:14:47.229Z,3.00
2023-04-21T19:17:17.673Z,2.70
2023-04-21T19:19:47.559Z,3.22
2023-04-21T19:22:16.833Z,3.10
2023-04-21T19:24:47.839Z,2.95
2023-04-21T19:27:17.273Z,3.00
2023-04-21T19:29:45.985Z,3.20
2023-04-21T19:32:16.681Z,3.20
2023-04-21T19:34:46.106Z,3.28
2023-04-21T19:37:16.603Z,3.42
2023-04-21T19:39:47.410Z,3.33
2023-04-21T19:42:16.805Z,3.40
2023-04-21T19:44:45.860Z,3.60
2023-04-21T19:47:15.412Z,3.47
2023-04-21T19:49:45.194Z,3.40
2023-04-21T19:52:15.459Z,3.72
2023-04-21T19:54:45.376Z,3.50
2023-04-21T19:57:14.632Z,3.28
2023-04-21T19:59:43.579Z,3.47
2023-04-21T20:02:12.938Z,3.17
2023-04-21T20:04:41.758Z,3.30
2023-04-21T20:07:12.973Z,3.35
2023-04-21T20:09:41.927Z,3.10
2023-04-21T20:12:12.291Z,3.50
2023-04-21T20:14:42.005Z,3.00
2023-04-21T20:17:14.084Z,3.05
2023-04-21T20:19:43.884Z,3.15
2023-04-21T20:22:12.915Z,3.17
2023-04-21T20:24:45.514Z,3.08
2023-04-21T20:27:16.534Z,2.85
2023-04-21T20:29:47.265Z,3.20
2023-04-21T20:32:17.411Z,2.72
2023-04-21T20:34:46.480Z,2.88
2023-04-21T20:37:15.481Z,2.92
2023-04-21T20:39:47.441Z,2.95
2023-04-21T20:42:21.265Z,3.00
2023-04-21T20:45:27.457Z,3.05
2023-04-21T20:47:57.415Z,3.20
2023-04-21T20:51:38.586Z,3.05
2023-04-21T20:54:52.744Z,2.80
2023-04-21T20:57:23.516Z,2.70
2023-04-21T20:59:53.680Z,3.10
2023-04-21T21:02:24.144Z,2.90
2023-04-21T21:04:54.091Z,3.20
2023-04-21T21:07:25.688Z,2.80
2023-04-21T21:09:55.703Z,3.00
2023-04-21T21:12:25.978Z,2.97
2023-04-21T21:14:55.586Z,2.78
2023-04-21T21:17:27.991Z,2.90
2023-04-21T21:19:57.246Z,2.80
2023-04-21T21:22:26.833Z,2.47
2023-04-21T21:24:56.804Z,2.80
2023-04-21T21:27:25.859Z,2.65
2023-04-21T21:29:55.774Z,3.15
2023-04-21T21:32:25.671Z,2.78
2023-04-21T21:36:17.128Z,2.60
2023-04-21T21:38:53.848Z,2.40
2023-04-21T21:42:00.033Z,2.60
2023-04-21T21:44:30.604Z,2.50
2023-04-21T21:47:02.264Z,2.58
2023-04-21T21:49:33.625Z,2.50
2023-04-21T21:52:03.895Z,2.50
2023-04-21T21:54:37.656Z,2.72
2023-04-21T21:57:13.267Z,2.33
2023-04-21T21:59:49.677Z,2.58
2023-04-21T22:02:29.492Z,2.42
2023-04-21T22:04:59.241Z,2.30
2023-04-21T22:12:19.615Z,2.33
2023-04-21T22:15:04.713Z,2.53
2023-04-21T22:17:36.476Z,2.33
2023-04-21T22:20:10.285Z,2.60
2023-04-21T22:22:41.120Z,2.63
2023-04-21T22:25:11.735Z,2.85
2023-04-21T22:28:16.965Z,2.78
2023-04-21T22:30:49.590Z,2.38
2023-04-21T22:35:49.608Z,2.40
2023-04-21T22:38:19.759Z,2.58
2023-04-21T22:40:49.746Z,2.40
2023-04-21T22:43:22.127Z,2.47
2023-04-21T22:45:52.661Z,2.40
2023-04-21T22:48:21.609Z,2.53
2023-04-21T22:50:52.778Z,2.65
2023-04-21T22:53:22.621Z,2.80
2023-04-21T22:55:52.978Z,2.78
2023-04-21T22:58:23.963Z,2.42
2023-04-21T23:00:55.827Z,2.65
2023-04-21T23:04:46.769Z,2.60
2023-04-21T23:08:52.513Z,2.30
2023-04-21T23:17:28.456Z,2.28
2023-04-21T23:22:31.188Z,2.25
2023-04-21T23:24:49.923Z,2.40
2023-04-21T23:27:23.822Z,2.50
2023-04-21T23:29:53.044Z,2.70
2023-04-21T23:32:26.290Z,2.85
2023-04-21T23:34:56.995Z,2.70
2023-04-21T23:37:29.133Z,2.70
2023-04-21T23:39:57.531Z,2.80
2023-04-21T23:42:28.383Z,2.70
2023-04-21T23:45:02.927Z,2.70
2023-04-21T23:47:35.150Z,2.90
2023-04-21T23:50:05.588Z,2.70
2023-04-21T23:52:35.520Z,2.60
2023-04-21T23:55:17.684Z,2.70
2023-04-21T23:57:49.575Z,2.30
